createdAt,value
2019-01-04T00:00:10.855Z,25.63
2019-01-04T00:02:39.707Z,22.50
2019-01-04T00:05:08.553Z,20.50
2019-01-04T00:07:37.392Z,22.03
2019-01-04T00:10:06.235Z,21.93
2019-01-04T00:12:35.083Z,21.77
2019-01-04T00:15:03.918Z,22.70
2019-01-04T00:17:32.772Z,24.07
2019-01-04T00:20:01.635Z,26.62
2019-01-04T00:22:31.221Z,27.25
2019-01-04T00:25:00.801Z,25.85
2019-01-04T00:27:29.634Z,21.63
2019-01-04T00:29:59.212Z,21.77
2019-01-04T00:32:28.050Z,22.50
2019-01-04T00:34:56.890Z,22.53
2019-01-04T00:37:25.770Z,22.07
2019-01-04T00:39:54.575Z,25.00
2019-01-04T00:42:23.414Z,22.37
2019-01-04T00:44:52.260Z,24.08
2019-01-04T00:47:22.648Z,21.87
2019-01-04T00:49:51.494Z,23.25
2019-01-04T00:52:20.375Z,21.80
2019-01-04T00:54:50.069Z,20.87
2019-01-04T00:57:28.538Z,20.57
2019-01-04T01:00:04.206Z,21.77
2019-01-04T01:05:36.631Z,23.20
2019-01-04T01:10:56.410Z,22.87
2019-01-04T01:13:31.860Z,21.93
2019-01-04T01:19:01.387Z,24.87
2019-01-04T01:21:37.038Z,25.23
2019-01-04T01:27:02.339Z,25.98
2019-01-04T01:29:41.974Z,24.17
2019-01-04T01:32:28.634Z,23.17
2019-01-04T01:34:59.496Z,24.43
2019-01-04T01:37:35.914Z,27.85
2019-01-04T01:40:19.254Z,24.80
2019-01-04T01:45:35.832Z,28.20
2019-01-04T01:48:04.669Z,27.17
2019-01-04T01:50:39.096Z,26.17
2019-01-04T01:53:07.937Z,23.20
2019-01-04T01:55:36.769Z,22.37
2019-01-04T01:58:05.612Z,23.47
2019-01-04T02:00:34.440Z,24.03
2019-01-04T02:03:03.287Z,22.93
2019-01-04T02:05:32.123Z,22.53
2019-01-04T02:08:01.714Z,25.00
2019-01-04T02:10:31.295Z,25.10
2019-01-04T02:13:00.136Z,27.90
2019-01-04T02:15:28.990Z,26.42
2019-01-04T02:17:57.844Z,23.33
2019-01-04T02:20:26.694Z,22.30
2019-01-04T02:22:56.278Z,23.00
2019-01-04T02:25:25.109Z,22.37
2019-01-04T02:27:53.961Z,21.03
2019-01-04T02:30:23.552Z,20.60
2019-01-04T02:32:52.392Z,21.50
2019-01-04T02:35:21.219Z,20.83
2019-01-04T02:37:50.055Z,21.20
2019-01-04T02:40:18.917Z,20.97
2019-01-04T02:42:47.766Z,21.27
2019-01-04T02:45:16.611Z,19.37
2019-01-04T02:47:46.191Z,18.97
2019-01-04T02:50:15.056Z,19.73
2019-01-04T02:52:43.875Z,20.40
2019-01-04T02:55:12.727Z,20.13
2019-01-04T02:57:41.566Z,19.40
2019-01-04T03:00:11.160Z,20.53
2019-01-04T03:02:39.981Z,22.87
2019-01-04T03:05:08.816Z,21.53
2019-01-04T03:07:37.680Z,22.43
2019-01-04T03:10:06.516Z,22.10
2019-01-04T03:12:35.361Z,23.67
2019-01-04T03:15:04.190Z,24.23
2019-01-04T03:17:33.037Z,22.80
2019-01-04T03:20:01.876Z,23.67
2019-01-04T03:22:30.728Z,21.23
2019-01-04T03:24:59.565Z,21.03
2019-01-04T03:27:29.147Z,21.60
2019-01-04T03:29:57.982Z,22.00
2019-01-04T03:32:26.830Z,22.33
2019-01-04T03:34:56.427Z,22.73
2019-01-04T03:37:25.259Z,23.00
2019-01-04T03:39:54.120Z,25.20
2019-01-04T03:42:22.936Z,24.97
2019-01-04T03:44:52.523Z,25.07
2019-01-04T03:47:21.368Z,29.20
2019-01-04T03:49:50.202Z,28.17
2019-01-04T03:52:19.790Z,27.07
2019-01-04T03:54:48.637Z,28.30
2019-01-04T03:57:17.473Z,27.63
2019-01-04T03:59:46.318Z,27.47
2019-01-04T04:02:15.159Z,31.67
2019-01-04T04:04:43.998Z,32.08
2019-01-04T04:07:12.834Z,27.70
2019-01-04T04:09:42.434Z,28.73
2019-01-04T04:12:12.021Z,32.17
2019-01-04T04:14:40.861Z,29.37
2019-01-04T04:17:10.448Z,32.47
2019-01-04T04:19:39.298Z,30.73
2019-01-04T04:22:08.156Z,33.17
2019-01-04T04:24:37.019Z,30.30
2019-01-04T04:27:06.639Z,40.97
2019-01-04T04:29:35.441Z,34.50
2019-01-04T04:32:04.290Z,33.60
2019-01-04T04:34:33.157Z,37.80
2019-01-04T04:37:01.991Z,34.25
2019-01-04T04:39:31.582Z,32.13
2019-01-04T04:42:00.434Z,33.07
2019-01-04T04:44:29.265Z,29.85
2019-01-04T04:46:58.121Z,31.10
2019-01-04T04:49:26.962Z,28.00
2019-01-04T04:51:56.540Z,27.37
2019-01-04T04:54:25.370Z,29.87
2019-01-04T04:56:54.217Z,30.87
2019-01-04T04:59:23.059Z,30.33
2019-01-04T05:01:51.895Z,30.63
2019-01-04T05:04:20.741Z,34.23
2019-01-04T05:06:49.575Z,32.88
2019-01-04T05:09:18.428Z,30.70
2019-01-04T05:11:47.263Z,27.53
2019-01-04T05:14:16.844Z,31.07
2019-01-04T05:16:45.688Z,29.70
2019-01-04T05:19:14.528Z,29.63
2019-01-04T05:21:43.360Z,26.63
2019-01-04T05:24:12.203Z,28.60
2019-01-04T05:26:41.046Z,28.60
2019-01-04T05:29:09.885Z,31.83
2019-01-04T05:31:39.301Z,31.13
2019-01-04T05:34:08.873Z,28.83
2019-01-04T05:36:37.707Z,29.10
2019-01-04T05:39:06.556Z,29.77
2019-01-04T05:41:35.389Z,30.48
2019-01-04T05:44:04.971Z,26.43
2019-01-04T05:46:33.795Z,28.07
2019-01-04T05:49:02.628Z,27.60
2019-01-04T05:51:31.488Z,31.07
2019-01-04T05:54:00.316Z,28.67
2019-01-04T05:56:29.145Z,28.70
2019-01-04T05:58:58.027Z,27.17
2019-01-04T06:01:26.876Z,29.43
2019-01-04T06:03:55.715Z,30.57
2019-01-04T06:06:25.586Z,28.63
2019-01-04T06:08:54.420Z,27.57
2019-01-04T06:11:23.261Z,32.43
2019-01-04T06:13:52.089Z,28.90
2019-01-04T06:16:21.658Z,33.87
2019-01-04T06:18:50.494Z,32.77
2019-01-04T06:21:19.325Z,29.67
2019-01-04T06:23:48.161Z,32.40
2019-01-04T06:26:17.005Z,33.43
2019-01-04T06:28:45.834Z,32.00
2019-01-04T06:31:15.486Z,30.13
2019-01-04T06:33:45.002Z,32.60
2019-01-04T06:36:13.845Z,39.03
2019-01-04T06:38:42.689Z,29.53
2019-01-04T06:41:11.517Z,30.93
2019-01-04T06:43:41.083Z,32.17
2019-01-04T06:46:10.052Z,32.70
2019-01-04T06:48:38.892Z,30.23
2019-01-04T06:51:07.747Z,28.63
2019-01-04T06:53:36.595Z,30.42
2019-01-04T06:56:05.441Z,29.70
2019-01-04T06:58:34.280Z,29.93
2019-01-04T07:01:03.170Z,29.93
2019-01-04T07:03:32.546Z,30.67
2019-01-04T07:06:02.107Z,36.75
2019-01-04T07:08:33.982Z,36.88
2019-01-04T07:11:02.574Z,33.37
2019-01-04T07:13:31.417Z,37.03
2019-01-04T07:16:00.251Z,40.00
2019-01-04T07:18:29.108Z,33.90
2019-01-04T07:20:57.940Z,32.90
2019-01-04T07:23:27.519Z,32.37
2019-01-04T07:25:56.663Z,36.10
2019-01-04T07:28:26.225Z,31.57
2019-01-04T07:30:55.069Z,30.30
2019-01-04T07:33:23.913Z,28.93
2019-01-04T07:35:52.762Z,28.70
2019-01-04T07:38:21.582Z,30.03
2019-01-04T07:40:50.433Z,29.80
2019-01-04T07:43:19.269Z,30.17
2019-01-04T07:45:48.181Z,29.57
2019-01-04T07:48:16.963Z,34.97
2019-01-04T07:50:46.553Z,33.03
2019-01-04T07:53:15.402Z,33.67
2019-01-04T07:55:44.246Z,31.83
2019-01-04T07:58:13.863Z,28.67
2019-01-04T08:00:42.678Z,30.20
2019-01-04T08:03:11.511Z,34.77
2019-01-04T08:05:40.345Z,36.13
2019-01-04T08:08:09.180Z,34.30
2019-01-04T08:10:38.024Z,28.33
2019-01-04T08:13:06.868Z,27.93
2019-01-04T08:15:35.724Z,25.63
2019-01-04T08:18:04.574Z,24.17
2019-01-04T08:20:34.145Z,22.57
2019-01-04T08:23:02.985Z,22.17
2019-01-04T08:25:32.555Z,22.33
2019-01-04T08:28:02.133Z,22.50
2019-01-04T08:30:30.969Z,23.77
2019-01-04T08:33:00.562Z,21.27
2019-01-04T08:35:29.420Z,21.83
2019-01-04T08:37:58.663Z,25.25
2019-01-04T08:40:27.508Z,21.03
2019-01-04T08:42:56.347Z,20.47
2019-01-04T08:45:25.209Z,22.70
2019-01-04T08:47:54.084Z,21.70
2019-01-04T08:50:23.947Z,22.58
2019-01-04T08:52:52.793Z,21.57
2019-01-04T08:55:21.629Z,19.73
2019-01-04T08:57:50.458Z,21.63
2019-01-04T09:00:19.307Z,22.73
2019-01-04T09:02:48.155Z,24.03
2019-01-04T09:05:16.980Z,23.30
2019-01-04T09:07:45.817Z,21.10
2019-01-04T09:10:14.682Z,20.57
2019-01-04T09:12:44.231Z,19.57
2019-01-04T09:15:13.065Z,19.80
2019-01-04T09:17:41.914Z,21.65
2019-01-04T09:20:10.748Z,20.70
2019-01-04T09:22:39.583Z,21.47
2019-01-04T09:25:08.429Z,19.73
2019-01-04T09:27:37.256Z,20.40
2019-01-04T09:30:06.138Z,20.20
2019-01-04T09:32:34.965Z,20.60
2019-01-04T09:35:04.556Z,18.77
2019-01-04T09:37:34.144Z,19.27
2019-01-04T09:40:02.968Z,21.10
2019-01-04T09:42:31.856Z,19.47
2019-01-04T09:45:01.447Z,18.40
2019-01-04T09:47:30.303Z,18.10
2019-01-04T09:49:59.133Z,21.12
2019-01-04T09:52:28.731Z,18.47
2019-01-04T09:54:58.318Z,17.07
2019-01-04T09:57:27.157Z,20.23
2019-01-04T09:59:56.001Z,18.17
2019-01-04T10:02:25.587Z,21.52
2019-01-04T10:04:54.418Z,18.73
2019-01-04T10:07:24.015Z,18.77
2019-01-04T10:09:52.879Z,18.30
2019-01-04T10:12:21.740Z,21.12
2019-01-04T10:14:50.569Z,18.63
2019-01-04T10:17:19.414Z,19.87
2019-01-04T10:19:48.257Z,18.00
2019-01-04T10:22:17.221Z,17.77
2019-01-04T10:24:46.053Z,19.43
2019-01-04T10:27:15.645Z,20.77
2019-01-04T10:29:44.495Z,19.30
2019-01-04T10:32:13.317Z,20.43
2019-01-04T10:34:42.183Z,20.10
2019-01-04T10:37:11.031Z,22.67
2019-01-04T10:39:39.864Z,21.03
2019-01-04T10:42:08.703Z,21.70
2019-01-04T10:44:37.582Z,21.10
2019-01-04T10:47:06.417Z,20.17
2019-01-04T10:49:35.248Z,20.63
2019-01-04T10:52:04.826Z,21.30
2019-01-04T10:54:33.662Z,21.87
2019-01-04T10:57:02.501Z,19.20
2019-01-04T10:59:31.344Z,19.60
2019-01-04T11:02:00.184Z,19.17
2019-01-04T11:04:29.011Z,19.87
2019-01-04T11:06:57.849Z,20.13
2019-01-04T11:09:26.691Z,21.43
2019-01-04T11:11:55.583Z,19.17
2019-01-04T11:14:25.165Z,19.83
2019-01-04T11:16:54.000Z,19.03
2019-01-04T11:19:22.848Z,19.27
2019-01-04T11:21:51.713Z,19.13
2019-01-04T11:27:06.466Z,19.85
2019-01-04T11:29:38.687Z,18.97
2019-01-04T11:32:07.535Z,18.67
2019-01-04T11:34:45.937Z,20.30
2019-01-04T11:37:24.616Z,18.67
2019-01-04T11:39:59.469Z,18.30
2019-01-04T11:42:29.221Z,20.77
2019-01-04T11:47:40.103Z,19.17
2019-01-04T11:52:57.109Z,19.08
2019-01-04T11:55:25.943Z,18.20
2019-01-04T11:57:55.411Z,17.60
2019-01-04T12:00:24.255Z,16.90
2019-01-04T12:02:54.005Z,43.87
2019-01-04T12:05:22.762Z,19.50
2019-01-04T12:07:52.330Z,16.87
2019-01-04T12:10:21.186Z,15.93
2019-01-04T12:12:50.068Z,15.57
2019-01-04T12:15:18.916Z,16.37
2019-01-04T12:17:47.749Z,12.97
2019-01-04T12:20:16.607Z,13.03
2019-01-04T12:22:45.445Z,13.70
2019-01-04T12:25:14.292Z,16.65
2019-01-04T12:27:43.115Z,15.27
2019-01-04T12:30:11.954Z,15.10
2019-01-04T12:32:40.801Z,14.83
2019-01-04T12:35:09.669Z,17.40
2019-01-04T12:37:38.507Z,13.70
2019-01-04T12:40:07.352Z,14.63
2019-01-04T12:42:36.205Z,15.83
2019-01-04T12:45:05.783Z,14.60
2019-01-04T12:47:34.613Z,15.10
2019-01-04T12:50:04.202Z,14.87
2019-01-04T12:52:33.771Z,15.70
2019-01-04T12:55:02.618Z,15.33
2019-01-04T12:57:32.184Z,12.93
2019-01-04T13:00:01.043Z,16.13
2019-01-04T13:02:29.892Z,19.02
2019-01-04T13:04:59.486Z,18.07
2019-01-04T13:07:28.318Z,15.60
2019-01-04T13:09:57.164Z,15.97
2019-01-04T13:12:26.011Z,15.00
2019-01-04T13:14:54.843Z,15.43
2019-01-04T13:17:24.443Z,14.07
2019-01-04T13:19:53.281Z,14.87
2019-01-04T13:22:22.107Z,14.87
2019-01-04T13:24:50.972Z,14.73
2019-01-04T13:27:19.826Z,15.98
2019-01-04T13:29:49.396Z,14.43
2019-01-04T13:32:18.984Z,14.40
2019-01-04T13:34:47.842Z,14.00
2019-01-04T13:37:17.407Z,13.53
2019-01-04T13:39:46.252Z,13.60
2019-01-04T13:42:15.109Z,13.67
2019-01-04T13:44:44.686Z,15.63
2019-01-04T13:47:13.541Z,13.57
2019-01-04T13:49:42.378Z,13.65
2019-01-04T13:52:11.242Z,11.73
2019-01-04T13:54:40.084Z,13.62
2019-01-04T13:57:08.929Z,12.07
2019-01-04T13:59:37.766Z,11.40
2019-01-04T14:02:06.637Z,12.13
2019-01-04T14:04:36.217Z,13.13
2019-01-04T14:07:05.067Z,13.20
2019-01-04T14:09:33.905Z,13.93
2019-01-04T14:12:02.746Z,13.40
2019-01-04T14:14:31.602Z,13.30
2019-01-04T14:17:00.441Z,13.77
2019-01-04T14:19:29.283Z,14.27
2019-01-04T14:21:58.145Z,13.90
2019-01-04T14:24:26.983Z,14.10
2019-01-04T14:26:55.821Z,14.67
2019-01-04T14:29:24.659Z,15.87
2019-01-04T14:31:53.502Z,16.00
2019-01-04T14:34:22.345Z,15.53
2019-01-04T14:36:51.227Z,16.10
2019-01-04T14:39:20.761Z,17.30
2019-01-04T14:41:49.604Z,16.17
2019-01-04T14:44:18.439Z,19.02
2019-01-04T14:46:47.287Z,17.93
2019-01-04T14:49:16.167Z,19.33
2019-01-04T14:51:44.961Z,18.67
2019-01-04T14:54:13.796Z,18.83
2019-01-04T14:56:42.639Z,18.23
2019-01-04T14:59:11.486Z,18.20
2019-01-04T15:01:40.323Z,18.00
2019-01-04T15:04:09.182Z,17.47
2019-01-04T15:06:38.034Z,19.03
2019-01-04T15:09:06.861Z,18.63
2019-01-04T15:11:35.700Z,18.93
2019-01-04T15:14:04.540Z,18.27
2019-01-04T15:16:34.115Z,18.53
2019-01-04T15:19:02.949Z,20.30
2019-01-04T15:21:31.785Z,18.77
2019-01-04T15:24:00.646Z,18.47
2019-01-04T15:26:29.503Z,19.60
2019-01-04T15:28:59.111Z,18.53
2019-01-04T15:31:28.695Z,19.47
2019-01-04T15:33:58.312Z,19.33
2019-01-04T15:36:27.107Z,18.70
2019-01-04T15:38:56.693Z,17.63
2019-01-04T15:41:25.547Z,17.33
2019-01-04T15:43:54.388Z,17.80
2019-01-04T15:46:23.345Z,17.10
2019-01-04T15:48:52.192Z,19.42
2019-01-04T15:51:21.040Z,17.80
2019-01-04T15:53:49.892Z,18.57
2019-01-04T15:56:18.732Z,17.97
2019-01-04T15:58:47.593Z,18.20
2019-01-04T16:01:16.440Z,17.37
2019-01-04T16:03:45.309Z,18.93
2019-01-04T16:06:14.151Z,18.43
2019-01-04T16:08:42.999Z,19.17
2019-01-04T16:11:12.612Z,18.90
2019-01-04T16:13:41.513Z,17.90
2019-01-04T16:16:10.362Z,17.00
2019-01-04T16:18:39.282Z,16.80
2019-01-04T16:21:08.052Z,18.77
2019-01-04T16:23:37.637Z,17.23
2019-01-04T16:26:06.471Z,18.42
2019-01-04T16:28:35.325Z,17.00
2019-01-04T16:31:04.174Z,16.07
2019-01-04T16:33:33.014Z,17.25
2019-01-04T16:36:01.865Z,15.57
2019-01-04T16:38:30.752Z,16.20
2019-01-04T16:40:59.604Z,16.20
2019-01-04T16:43:28.439Z,15.00
2019-01-04T16:45:57.300Z,14.80
2019-01-04T16:48:26.171Z,13.70
2019-01-04T16:50:55.091Z,14.73
2019-01-04T16:53:24.633Z,14.33
2019-01-04T16:55:53.499Z,16.23
2019-01-04T16:58:22.390Z,16.90
2019-01-04T17:00:51.189Z,15.67
2019-01-04T17:03:20.098Z,14.60
2019-01-04T17:05:52.127Z,14.93
2019-01-04T17:08:20.596Z,15.80
2019-01-04T17:10:49.434Z,16.80
2019-01-04T17:13:18.339Z,16.83
2019-01-04T17:15:47.161Z,15.83
2019-01-04T17:18:15.998Z,15.10
2019-01-04T17:20:51.166Z,14.93
2019-01-04T17:23:20.017Z,13.73
2019-01-04T17:25:49.499Z,12.87
2019-01-04T17:28:18.327Z,14.70
2019-01-04T17:30:47.907Z,14.60
2019-01-04T17:33:16.755Z,13.73
2019-01-04T17:35:45.581Z,14.13
2019-01-04T17:38:14.428Z,12.87
2019-01-04T17:40:43.261Z,13.23
2019-01-04T17:43:12.119Z,12.33
2019-01-04T17:45:40.977Z,13.67
2019-01-04T17:48:10.584Z,14.37
2019-01-04T17:50:39.389Z,14.33
2019-01-04T17:53:08.247Z,13.87
2019-01-04T17:55:37.100Z,15.50
2019-01-04T17:58:05.989Z,13.97
2019-01-04T18:00:34.843Z,12.03
2019-01-04T18:03:03.771Z,15.60
2019-01-04T18:05:32.622Z,15.43
2019-01-04T18:08:01.463Z,15.60
2019-01-04T18:10:30.308Z,14.87
2019-01-04T18:12:59.228Z,13.87
2019-01-04T18:15:28.057Z,14.27
2019-01-04T18:17:58.661Z,14.87
2019-01-04T18:20:27.272Z,14.27
2019-01-04T18:22:56.870Z,15.63
2019-01-04T18:25:25.729Z,14.43
2019-01-04T18:27:54.588Z,14.90
2019-01-04T18:30:23.471Z,14.13
2019-01-04T18:32:52.314Z,14.77
2019-01-04T18:35:21.167Z,14.10
2019-01-04T18:37:50.034Z,14.97
2019-01-04T18:40:18.871Z,15.90
2019-01-04T18:42:47.713Z,16.50
2019-01-04T18:45:16.566Z,17.95
2019-01-04T18:47:45.412Z,17.10
2019-01-04T18:50:14.252Z,17.33
2019-01-04T18:52:43.849Z,15.17
2019-01-04T18:55:12.671Z,18.30
2019-01-04T18:57:41.524Z,16.97
2019-01-04T19:00:10.391Z,16.37
2019-01-04T19:02:39.219Z,17.75
2019-01-04T19:05:08.073Z,15.73
2019-01-04T19:07:40.614Z,18.62
2019-01-04T19:10:09.478Z,17.17
2019-01-04T19:12:39.040Z,17.10
2019-01-04T19:15:07.882Z,18.58
2019-01-04T19:17:37.456Z,16.80
2019-01-04T19:20:06.297Z,17.40
2019-01-04T19:22:35.159Z,17.67
2019-01-04T19:25:04.749Z,18.43
2019-01-04T19:27:33.617Z,18.33
2019-01-04T19:30:02.458Z,18.80
2019-01-04T19:32:31.308Z,19.70
2019-01-04T19:35:00.183Z,21.10
2019-01-04T19:37:29.005Z,21.20
2019-01-04T19:39:57.921Z,21.80
2019-01-04T19:42:26.774Z,22.98
2019-01-04T19:44:55.627Z,20.20
2019-01-04T19:48:43.254Z,21.85
2019-01-04T19:51:12.084Z,20.23
2019-01-04T19:53:41.524Z,20.57
2019-01-04T19:56:10.543Z,20.70
2019-01-04T19:58:39.291Z,20.40
2019-01-04T20:01:08.139Z,21.23
2019-01-04T20:03:37.853Z,20.77
2019-01-04T20:17:18.705Z,22.80
2019-01-04T20:19:48.316Z,21.03
2019-01-04T20:22:20.120Z,21.17
2019-01-04T20:24:49.706Z,20.00
2019-01-04T20:27:19.395Z,22.53
2019-01-04T20:29:48.313Z,20.00
2019-01-04T20:32:22.575Z,20.83
2019-01-04T20:34:51.482Z,19.93
2019-01-04T20:37:20.372Z,19.53
2019-01-04T20:39:49.199Z,21.53
2019-01-04T20:42:20.973Z,20.40
2019-01-04T20:44:50.654Z,20.50
2019-01-04T20:47:22.365Z,19.23
2019-01-04T20:49:56.829Z,19.17
2019-01-04T20:52:27.177Z,17.23
2019-01-04T20:55:02.077Z,18.33
2019-01-04T20:57:37.208Z,17.23
2019-01-04T21:00:06.795Z,18.03
2019-01-04T21:02:41.047Z,18.90
2019-01-04T21:05:09.905Z,18.30
2019-01-04T21:07:39.545Z,19.27
2019-01-04T21:10:13.997Z,20.50
2019-01-04T21:12:44.776Z,19.10
2019-01-04T21:15:13.638Z,19.40
2019-01-04T21:17:45.324Z,18.80
2019-01-04T21:20:15.142Z,19.80
2019-01-04T21:22:44.029Z,20.92
2019-01-04T21:25:15.827Z,20.90
2019-01-04T21:27:48.575Z,19.87
2019-01-04T21:30:22.053Z,17.90
2019-01-04T21:32:54.836Z,19.10
2019-01-04T21:35:23.694Z,17.57
2019-01-04T21:37:52.628Z,16.90
2019-01-04T21:40:22.331Z,17.87
2019-01-04T21:42:52.774Z,17.70
2019-01-04T21:45:23.499Z,18.83
2019-01-04T21:47:54.194Z,16.77
2019-01-04T21:50:23.933Z,16.73
2019-01-04T21:52:58.408Z,16.60
2019-01-04T21:55:32.957Z,17.20
2019-01-04T21:58:07.742Z,18.20
2019-01-04T22:00:38.240Z,16.87
2019-01-04T22:03:09.894Z,17.50
2019-01-04T22:05:40.422Z,17.77
2019-01-04T22:08:09.292Z,19.50
2019-01-04T22:10:43.664Z,18.00
2019-01-04T22:13:16.471Z,17.53
2019-01-04T22:15:46.248Z,17.93
2019-01-04T22:18:20.960Z,19.43
2019-01-04T22:20:56.172Z,20.10
2019-01-04T22:23:27.834Z,19.17
2019-01-04T22:26:02.398Z,17.93
2019-01-04T22:28:36.704Z,18.70
2019-01-04T22:31:07.470Z,18.80
2019-01-04T22:33:40.272Z,18.47
2019-01-04T22:36:11.925Z,20.33
2019-01-04T22:38:41.527Z,19.77
2019-01-04T22:41:15.299Z,19.17
2019-01-04T22:43:45.025Z,19.43
2019-01-04T22:46:14.732Z,19.17
2019-01-04T22:48:45.536Z,19.77
2019-01-04T22:51:17.230Z,19.80
2019-01-04T22:53:49.838Z,18.80
2019-01-04T22:56:24.136Z,19.63
2019-01-04T22:58:53.061Z,22.05
2019-01-04T23:01:24.695Z,19.47
2019-01-04T23:03:53.594Z,22.70
2019-01-04T23:06:23.380Z,21.05
2019-01-04T23:08:52.300Z,20.50
2019-01-04T23:11:25.079Z,18.90
2019-01-04T23:13:53.922Z,20.62
2019-01-04T23:16:28.344Z,17.77
2019-01-04T23:19:02.781Z,18.60
2019-01-04T23:24:31.684Z,19.10
2019-01-04T23:27:06.044Z,21.52
2019-01-04T23:29:37.512Z,19.10
2019-01-04T23:32:06.378Z,18.83
2019-01-04T23:34:40.590Z,21.10
2019-01-04T23:37:14.906Z,18.27
2019-01-04T23:39:49.983Z,21.15
2019-01-04T23:42:20.548Z,19.30
2019-01-04T23:44:54.384Z,18.00
2019-01-04T23:47:29.474Z,21.52
2019-01-04T23:50:03.894Z,21.30
2019-01-04T23:52:34.487Z,19.17
2019-01-04T23:55:08.927Z,18.00
2019-01-04T23:57:42.620Z,19.97
